map of GOH home
Great Circle Mapper logo
GOH - Airport
Location
City:  Nuuk, Greenland
Name:Godthåb/Nuuk
ICAO / IATA:BGGH / GOH

Details
Type:Airport (Aerodrome, Airfield)
Latitude:64°11'27"N (64.190922)
Longitude:51°40'41"W (-51.678063)
Elevation:283 ft (86 m)
Runways:1
Longest:3117 × 98 ft (950 × 30 m), paved

Time
Time Zone:UTC-3 (DST-2)
Local Time:

Weather
METAR:BGGH 301750Z 09010KT 9999 FEW080 BKN210 01/M10 Q1014

Related Locations
Nearby:
Farthest:YWKS: 11920 mi / 19183 km
Wilkins Runway (Casey), Upper Peterson Glacier, AQ

Find:

   beyond  
but within

Other Information
Maps:
NOTAMs:
Links:
Sources:

  
flag of Greenland   

Sectional Chart

Flight Planning
at skyvector.com

Satellite Image

Google Maps Satellite View

 

Copyright © 2004-2014 Karl L. Swartz. All rights reserved.
The Great Circle Mapper name and logo are trademarks of the Great Circle Mapper.
All other trademarks mentioned herein belong to their respective owners.
Please see credits for attibutions and further copyright information.

  Follow gcmap on Facebook Follow gcmap on Twitter

hCard Microformat

Geo Microformat